sensor_id;sensor_type;location;lat;lon;timestamp;temperature;humidity
51029;DHT22;37054;52.054;8.600;2023-05-07T00:00:32;19.10;52.50
51029;DHT22;37054;52.054;8.600;2023-05-07T00:02:59;19.00;52.50
51029;DHT22;37054;52.054;8.600;2023-05-07T00:05:24;19.00;52.50
51029;DHT22;37054;52.054;8.600;2023-05-07T00:07:49;19.00;52.50
51029;DHT22;37054;52.054;8.600;2023-05-07T00:10:15;19.00;52.50
51029;DHT22;37054;52.054;8.600;2023-05-07T00:12:41;19.00;52.60
51029;DHT22;37054;52.054;8.600;2023-05-07T00:15:06;18.90;52.70
51029;DHT22;37054;52.054;8.600;2023-05-07T00:17:32;18.80;52.80
51029;DHT22;37054;52.054;8.600;2023-05-07T00:19:58;18.80;52.90
51029;DHT22;37054;52.054;8.600;2023-05-07T00:22:23;18.70;53.10
51029;DHT22;37054;52.054;8.600;2023-05-07T00:24:49;18.80;53.10
51029;DHT22;37054;52.054;8.600;2023-05-07T00:27:14;18.80;53.00
51029;DHT22;37054;52.054;8.600;2023-05-07T00:29:40;18.80;53.00
51029;DHT22;37054;52.054;8.600;2023-05-07T00:32:05;18.70;53.00
51029;DHT22;37054;52.054;8.600;2023-05-07T00:34:31;18.80;53.00
51029;DHT22;37054;52.054;8.600;2023-05-07T00:36:56;18.70;53.00
51029;DHT22;37054;52.054;8.600;2023-05-07T00:39:21;18.70;53.10
51029;DHT22;37054;52.054;8.600;2023-05-07T00:41:47;18.80;53.10
51029;DHT22;37054;52.054;8.600;2023-05-07T00:44:13;18.70;53.00
51029;DHT22;37054;52.054;8.600;2023-05-07T00:46:39;18.70;53.00
51029;DHT22;37054;52.054;8.600;2023-05-07T00:49:05;18.70;53.00
51029;DHT22;37054;52.054;8.600;2023-05-07T00:51:31;18.70;53.00
51029;DHT22;37054;52.054;8.600;2023-05-07T00:53:58;18.70;53.10
51029;DHT22;37054;52.054;8.600;2023-05-07T00:56:23;18.70;53.10
51029;DHT22;37054;52.054;8.600;2023-05-07T00:58:49;18.60;53.10
51029;DHT22;37054;52.054;8.600;2023-05-07T01:01:14;18.60;53.20
51029;DHT22;37054;52.054;8.600;2023-05-07T01:03:42;18.50;53.30
51029;DHT22;37054;52.054;8.600;2023-05-07T01:06:07;18.50;53.30
51029;DHT22;37054;52.054;8.600;2023-05-07T01:08:33;18.50;53.30
51029;DHT22;37054;52.054;8.600;2023-05-07T01:11:00;18.50;53.40
51029;DHT22;37054;52.054;8.600;2023-05-07T01:13:25;18.50;53.40
51029;DHT22;37054;52.054;8.600;2023-05-07T01:15:51;18.40;53.50
51029;DHT22;37054;52.054;8.600;2023-05-07T01:18:17;18.40;53.40
51029;DHT22;37054;52.054;8.600;2023-05-07T01:20:42;18.40;53.40
51029;DHT22;37054;52.054;8.600;2023-05-07T01:23:08;18.40;53.50
51029;DHT22;37054;52.054;8.600;2023-05-07T01:25:35;18.40;53.50
51029;DHT22;37054;52.054;8.600;2023-05-07T01:28:01;18.40;53.50
51029;DHT22;37054;52.054;8.600;2023-05-07T01:30:26;18.40;53.50
51029;DHT22;37054;52.054;8.600;2023-05-07T01:32:53;18.40;53.60
51029;DHT22;37054;52.054;8.600;2023-05-07T01:35:22;18.30;53.60
51029;DHT22;37054;52.054;8.600;2023-05-07T01:37:49;18.40;53.50
51029;DHT22;37054;52.054;8.600;2023-05-07T01:40:15;18.30;53.60
51029;DHT22;37054;52.054;8.600;2023-05-07T01:42:41;18.30;53.60
51029;DHT22;37054;52.054;8.600;2023-05-07T01:45:08;18.30;53.50
51029;DHT22;37054;52.054;8.600;2023-05-07T01:47:33;18.30;53.70
51029;DHT22;37054;52.054;8.600;2023-05-07T01:49:59;18.30;53.70
51029;DHT22;37054;52.054;8.600;2023-05-07T01:52:25;18.30;53.80
51029;DHT22;37054;52.054;8.600;2023-05-07T01:54:52;18.30;53.80
51029;DHT22;37054;52.054;8.600;2023-05-07T01:57:17;18.20;53.90
51029;DHT22;37054;52.054;8.600;2023-05-07T01:59:43;18.20;54.00
51029;DHT22;37054;52.054;8.600;2023-05-07T02:02:08;18.20;53.90
51029;DHT22;37054;52.054;8.600;2023-05-07T02:04:34;18.20;54.10
51029;DHT22;37054;52.054;8.600;2023-05-07T02:06:59;18.20;54.10
51029;DHT22;37054;52.054;8.600;2023-05-07T02:09:24;18.20;54.10
51029;DHT22;37054;52.054;8.600;2023-05-07T02:11:50;18.20;54.10
51029;DHT22;37054;52.054;8.600;2023-05-07T02:14:15;18.10;54.10
51029;DHT22;37054;52.054;8.600;2023-05-07T02:16:41;18.20;54.10
51029;DHT22;37054;52.054;8.600;2023-05-07T02:19:06;18.20;54.10
51029;DHT22;37054;52.054;8.600;2023-05-07T02:21:32;18.20;54.10
51029;DHT22;37054;52.054;8.600;2023-05-07T02:23:57;18.20;54.10
51029;DHT22;37054;52.054;8.600;2023-05-07T02:26:23;18.20;54.10
51029;DHT22;37054;52.054;8.600;2023-05-07T02:28:48;18.20;54.10
51029;DHT22;37054;52.054;8.600;2023-05-07T02:31:13;18.10;54.10
51029;DHT22;37054;52.054;8.600;2023-05-07T02:33:39;18.10;54.10
51029;DHT22;37054;52.054;8.600;2023-05-07T02:36:05;18.10;54.10
51029;DHT22;37054;52.054;8.600;2023-05-07T02:38:31;18.10;54.00
51029;DHT22;37054;52.054;8.600;2023-05-07T02:40:56;18.10;54.10
51029;DHT22;37054;52.054;8.600;2023-05-07T02:43:21;18.00;54.30
51029;DHT22;37054;52.054;8.600;2023-05-07T02:45:47;18.00;54.20
51029;DHT22;37054;52.054;8.600;2023-05-07T02:48:12;18.00;54.20
51029;DHT22;37054;52.054;8.600;2023-05-07T02:50:38;18.00;54.20
51029;DHT22;37054;52.054;8.600;2023-05-07T02:53:03;18.00;54.20
51029;DHT22;37054;52.054;8.600;2023-05-07T02:55:29;17.90;54.30
51029;DHT22;37054;52.054;8.600;2023-05-07T02:57:54;18.00;54.20
51029;DHT22;37054;52.054;8.600;2023-05-07T03:00:20;17.90;54.20
51029;DHT22;37054;52.054;8.600;2023-05-07T03:02:45;17.90;54.20
51029;DHT22;37054;52.054;8.600;2023-05-07T03:05:11;17.90;54.20
51029;DHT22;37054;52.054;8.600;2023-05-07T03:07:37;17.90;54.30
51029;DHT22;37054;52.054;8.600;2023-05-07T03:10:03;17.90;54.30
51029;DHT22;37054;52.054;8.600;2023-05-07T03:12:29;17.90;54.30
51029;DHT22;37054;52.054;8.600;2023-05-07T03:14:54;17.90;54.20
51029;DHT22;37054;52.054;8.600;2023-05-07T03:17:20;17.90;54.20
51029;DHT22;37054;52.054;8.600;2023-05-07T03:19:45;17.80;54.30
51029;DHT22;37054;52.054;8.600;2023-05-07T03:22:11;17.90;54.30
51029;DHT22;37054;52.054;8.600;2023-05-07T03:24:36;17.80;54.40
51029;DHT22;37054;52.054;8.600;2023-05-07T03:27:02;17.80;54.50
51029;DHT22;37054;52.054;8.600;2023-05-07T03:29:27;17.80;54.50
51029;DHT22;37054;52.054;8.600;2023-05-07T03:31:53;17.70;54.60
51029;DHT22;37054;52.054;8.600;2023-05-07T03:34:18;17.70;54.60
51029;DHT22;37054;52.054;8.600;2023-05-07T03:36:50;17.70;54.60
51029;DHT22;37054;52.054;8.600;2023-05-07T03:39:15;17.70;54.60
51029;DHT22;37054;52.054;8.600;2023-05-07T03:41:41;17.60;54.80
51029;DHT22;37054;52.054;8.600;2023-05-07T03:44:06;17.60;54.80
51029;DHT22;37054;52.054;8.600;2023-05-07T03:46:32;17.60;54.90
51029;DHT22;37054;52.054;8.600;2023-05-07T03:48:58;17.60;54.80
51029;DHT22;37054;52.054;8.600;2023-05-07T03:51:23;17.60;54.80
51029;DHT22;37054;52.054;8.600;2023-05-07T03:53:49;17.50;54.90
51029;DHT22;37054;52.054;8.600;2023-05-07T03:56:14;17.50;54.90
51029;DHT22;37054;52.054;8.600;2023-05-07T03:58:40;17.50;55.00
51029;DHT22;37054;52.054;8.600;2023-05-07T04:01:05;17.50;55.00
51029;DHT22;37054;52.054;8.600;2023-05-07T04:03:30;17.50;55.00
51029;DHT22;37054;52.054;8.600;2023-05-07T04:05:56;17.50;54.90
51029;DHT22;37054;52.054;8.600;2023-05-07T04:08:21;17.50;55.00
51029;DHT22;37054;52.054;8.600;2023-05-07T04:10:47;17.60;54.90
51029;DHT22;37054;52.054;8.600;2023-05-07T04:13:12;17.60;55.00
51029;DHT22;37054;52.054;8.600;2023-05-07T04:15:38;17.50;55.00
51029;DHT22;37054;52.054;8.600;2023-05-07T04:18:03;17.60;55.10
51029;DHT22;37054;52.054;8.600;2023-05-07T04:20:28;17.50;55.10
51029;DHT22;37054;52.054;8.600;2023-05-07T04:22:54;17.50;55.00
51029;DHT22;37054;52.054;8.600;2023-05-07T04:25:20;17.60;55.00
51029;DHT22;37054;52.054;8.600;2023-05-07T04:27:46;17.60;54.90
51029;DHT22;37054;52.054;8.600;2023-05-07T04:30:11;17.60;54.90
51029;DHT22;37054;52.054;8.600;2023-05-07T04:32:37;17.60;54.90
51029;DHT22;37054;52.054;8.600;2023-05-07T04:35:03;17.70;54.80
51029;DHT22;37054;52.054;8.600;2023-05-07T04:37:28;17.70;54.80
51029;DHT22;37054;52.054;8.600;2023-05-07T04:39:54;17.60;54.80
51029;DHT22;37054;52.054;8.600;2023-05-07T04:42:19;17.70;54.70
51029;DHT22;37054;52.054;8.600;2023-05-07T04:44:45;17.60;54.70
51029;DHT22;37054;52.054;8.600;2023-05-07T04:47:11;17.70;54.80
51029;DHT22;37054;52.054;8.600;2023-05-07T04:49:37;17.60;54.80
51029;DHT22;37054;52.054;8.600;2023-05-07T04:52:02;17.70;54.90
51029;DHT22;37054;52.054;8.600;2023-05-07T04:54:28;17.60;54.80
51029;DHT22;37054;52.054;8.600;2023-05-07T04:56:54;17.70;54.80
51029;DHT22;37054;52.054;8.600;2023-05-07T04:59:19;17.70;54.70
51029;DHT22;37054;52.054;8.600;2023-05-07T05:01:45;17.70;54.70
51029;DHT22;37054;52.054;8.600;2023-05-07T05:04:10;17.70;54.70
51029;DHT22;37054;52.054;8.600;2023-05-07T05:06:35;17.70;54.70
51029;DHT22;37054;52.054;8.600;2023-05-07T05:09:01;17.80;54.60
51029;DHT22;37054;52.054;8.600;2023-05-07T05:11:26;17.80;54.60
51029;DHT22;37054;52.054;8.600;2023-05-07T05:13:52;17.90;54.50
51029;DHT22;37054;52.054;8.600;2023-05-07T05:16:17;17.90;54.50
51029;DHT22;37054;52.054;8.600;2023-05-07T05:18:43;17.80;54.60
51029;DHT22;37054;52.054;8.600;2023-05-07T05:21:08;17.90;54.40
51029;DHT22;37054;52.054;8.600;2023-05-07T05:23:33;18.00;54.40
51029;DHT22;37054;52.054;8.600;2023-05-07T05:25:59;18.00;54.20
51029;DHT22;37054;52.054;8.600;2023-05-07T05:28:24;18.10;54.20
51029;DHT22;37054;52.054;8.600;2023-05-07T05:30:50;18.10;54.10
51029;DHT22;37054;52.054;8.600;2023-05-07T05:33:15;18.20;54.10
51029;DHT22;37054;52.054;8.600;2023-05-07T05:35:41;18.20;54.00
51029;DHT22;37054;52.054;8.600;2023-05-07T05:38:07;18.30;53.80
51029;DHT22;37054;52.054;8.600;2023-05-07T05:40:32;18.30;53.70
51029;DHT22;37054;52.054;8.600;2023-05-07T05:42:58;18.30;53.60
51029;DHT22;37054;52.054;8.600;2023-05-07T05:45:24;18.40;53.50
51029;DHT22;37054;52.054;8.600;2023-05-07T05:47:49;18.50;53.40
51029;DHT22;37054;52.054;8.600;2023-05-07T05:50:15;18.50;53.30
51029;DHT22;37054;52.054;8.600;2023-05-07T05:52:40;18.50;53.20
51029;DHT22;37054;52.054;8.600;2023-05-07T05:55:06;18.60;53.00
51029;DHT22;37054;52.054;8.600;2023-05-07T05:57:31;18.70;52.80
51029;DHT22;37054;52.054;8.600;2023-05-07T05:59:57;18.70;52.70
51029;DHT22;37054;52.054;8.600;2023-05-07T06:02:22;18.80;52.50
51029;DHT22;37054;52.054;8.600;2023-05-07T06:04:48;18.90;52.20
51029;DHT22;37054;52.054;8.600;2023-05-07T06:07:13;19.00;52.30
51029;DHT22;37054;52.054;8.600;2023-05-07T06:09:39;19.10;52.10
51029;DHT22;37054;52.054;8.600;2023-05-07T06:12:04;19.20;51.90
51029;DHT22;37054;52.054;8.600;2023-05-07T06:14:29;19.30;51.70
51029;DHT22;37054;52.054;8.600;2023-05-07T06:16:55;19.30;51.50
51029;DHT22;37054;52.054;8.600;2023-05-07T06:19:21;19.60;51.40
51029;DHT22;37054;52.054;8.600;2023-05-07T06:21:49;19.70;50.90
51029;DHT22;37054;52.054;8.600;2023-05-07T06:24:14;19.80;50.40
51029;DHT22;37054;52.054;8.600;2023-05-07T06:26:40;19.90;50.00
51029;DHT22;37054;52.054;8.600;2023-05-07T06:29:05;20.00;49.70
51029;DHT22;37054;52.054;8.600;2023-05-07T06:31:31;20.00;49.60
51029;DHT22;37054;52.054;8.600;2023-05-07T06:33:57;20.20;49.50
51029;DHT22;37054;52.054;8.600;2023-05-07T06:36:22;20.20;49.40
51029;DHT22;37054;52.054;8.600;2023-05-07T06:38:48;20.30;49.20
51029;DHT22;37054;52.054;8.600;2023-05-07T06:41:13;20.40;48.90
51029;DHT22;37054;52.054;8.600;2023-05-07T06:43:39;20.50;48.60
51029;DHT22;37054;52.054;8.600;2023-05-07T06:46:04;20.60;48.20
51029;DHT22;37054;52.054;8.600;2023-05-07T06:48:30;20.70;47.90
51029;DHT22;37054;52.054;8.600;2023-05-07T06:50:55;20.70;47.70
51029;DHT22;37054;52.054;8.600;2023-05-07T06:53:23;20.70;47.80
51029;DHT22;37054;52.054;8.600;2023-05-07T06:55:48;20.70;47.80
51029;DHT22;37054;52.054;8.600;2023-05-07T06:58:14;20.80;47.40
51029;DHT22;37054;52.054;8.600;2023-05-07T07:00:39;20.80;47.10
51029;DHT22;37054;52.054;8.600;2023-05-07T07:03:06;20.90;47.10
51029;DHT22;37054;52.054;8.600;2023-05-07T07:05:31;21.00;47.10
51029;DHT22;37054;52.054;8.600;2023-05-07T07:07:57;21.20;47.00
51029;DHT22;37054;52.054;8.600;2023-05-07T07:10:22;21.30;46.80
51029;DHT22;37054;52.054;8.600;2023-05-07T07:12:48;21.30;46.60
51029;DHT22;37054;52.054;8.600;2023-05-07T07:15:14;21.60;46.50
51029;DHT22;37054;52.054;8.600;2023-05-07T07:17:39;21.90;46.00
51029;DHT22;37054;52.054;8.600;2023-05-07T07:20:05;22.10;45.70
51029;DHT22;37054;52.054;8.600;2023-05-07T07:22:30;22.40;45.40
51029;DHT22;37054;52.054;8.600;2023-05-07T07:24:56;22.70;44.90
51029;DHT22;37054;52.054;8.600;2023-05-07T07:27:21;22.90;44.10
51029;DHT22;37054;52.054;8.600;2023-05-07T07:29:47;23.20;43.10
51029;DHT22;37054;52.054;8.600;2023-05-07T07:32:12;23.50;41.90
51029;DHT22;37054;52.054;8.600;2023-05-07T07:34:37;23.50;40.90
51029;DHT22;37054;52.054;8.600;2023-05-07T07:37:03;23.50;41.30
51029;DHT22;37054;52.054;8.600;2023-05-07T07:39:34;23.70;41.10
51029;DHT22;37054;52.054;8.600;2023-05-07T07:42:00;23.80;40.50
51029;DHT22;37054;52.054;8.600;2023-05-07T07:44:25;23.70;40.40
51029;DHT22;37054;52.054;8.600;2023-05-07T07:46:51;23.60;40.30
51029;DHT22;37054;52.054;8.600;2023-05-07T07:49:16;23.50;40.20
51029;DHT22;37054;52.054;8.600;2023-05-07T07:51:42;23.30;40.30
51029;DHT22;37054;52.054;8.600;2023-05-07T07:54:08;23.20;40.50
51029;DHT22;37054;52.054;8.600;2023-05-07T07:56:33;23.20;40.70
51029;DHT22;37054;52.054;8.600;2023-05-07T07:58:59;23.20;41.00
51029;DHT22;37054;52.054;8.600;2023-05-07T08:01:25;23.10;41.10
51029;DHT22;37054;52.054;8.600;2023-05-07T08:03:51;23.10;41.10
51029;DHT22;37054;52.054;8.600;2023-05-07T08:06:16;23.10;41.10
51029;DHT22;37054;52.054;8.600;2023-05-07T08:08:42;23.20;41.30
51029;DHT22;37054;52.054;8.600;2023-05-07T08:11:07;23.20;41.40
51029;DHT22;37054;52.054;8.600;2023-05-07T08:13:32;23.40;41.40
51029;DHT22;37054;52.054;8.600;2023-05-07T08:15:58;23.50;41.00
51029;DHT22;37054;52.054;8.600;2023-05-07T08:18:24;23.60;40.90
51029;DHT22;37054;52.054;8.600;2023-05-07T08:20:59;23.80;40.80
51029;DHT22;37054;52.054;8.600;2023-05-07T08:23:24;23.80;40.30
51029;DHT22;37054;52.054;8.600;2023-05-07T08:25:50;23.90;40.10
51029;DHT22;37054;52.054;8.600;2023-05-07T08:28:16;24.00;40.00
51029;DHT22;37054;52.054;8.600;2023-05-07T08:30:41;24.20;39.50
51029;DHT22;37054;52.054;8.600;2023-05-07T08:33:08;24.20;39.20
51029;DHT22;37054;52.054;8.600;2023-05-07T08:35:33;24.20;39.50
51029;DHT22;37054;52.054;8.600;2023-05-07T08:37:59;24.40;39.70
51029;DHT22;37054;52.054;8.600;2023-05-07T08:40:25;24.70;39.00
51029;DHT22;37054;52.054;8.600;2023-05-07T08:42:51;24.90;38.60
51029;DHT22;37054;52.054;8.600;2023-05-07T08:45:17;25.20;38.10
51029;DHT22;37054;52.054;8.600;2023-05-07T08:47:44;25.30;37.60
51029;DHT22;37054;52.054;8.600;2023-05-07T08:50:10;25.50;37.30
51029;DHT22;37054;52.054;8.600;2023-05-07T08:52:36;25.60;37.30
51029;DHT22;37054;52.054;8.600;2023-05-07T08:55:02;25.70;36.70
51029;DHT22;37054;52.054;8.600;2023-05-07T08:57:28;25.80;36.60
51029;DHT22;37054;52.054;8.600;2023-05-07T08:59:53;25.70;36.50
51029;DHT22;37054;52.054;8.600;2023-05-07T09:02:19;25.80;36.50
51029;DHT22;37054;52.054;8.600;2023-05-07T09:04:44;25.70;36.10
51029;DHT22;37054;52.054;8.600;2023-05-07T09:07:10;25.50;36.40
51029;DHT22;37054;52.054;8.600;2023-05-07T09:09:35;25.50;36.70
51029;DHT22;37054;52.054;8.600;2023-05-07T09:12:00;25.30;36.70
51029;DHT22;37054;52.054;8.600;2023-05-07T09:14:27;25.30;37.00
51029;DHT22;37054;52.054;8.600;2023-05-07T09:16:53;25.40;37.00
51029;DHT22;37054;52.054;8.600;2023-05-07T09:19:22;25.40;36.90
51029;DHT22;37054;52.054;8.600;2023-05-07T09:21:47;25.50;36.90
51029;DHT22;37054;52.054;8.600;2023-05-07T09:24:14;25.70;36.60
51029;DHT22;37054;52.054;8.600;2023-05-07T09:26:40;25.80;36.40
51029;DHT22;37054;52.054;8.600;2023-05-07T09:29:05;25.80;36.30
51029;DHT22;37054;52.054;8.600;2023-05-07T09:31:31;26.00;36.30
51029;DHT22;37054;52.054;8.600;2023-05-07T09:33:57;26.20;36.30
51029;DHT22;37054;52.054;8.600;2023-05-07T09:36:22;26.40;35.80
51029;DHT22;37054;52.054;8.600;2023-05-07T09:38:48;26.60;35.50
51029;DHT22;37054;52.054;8.600;2023-05-07T09:41:14;26.70;35.10
51029;DHT22;37054;52.054;8.600;2023-05-07T09:43:40;26.70;35.00
51029;DHT22;37054;52.054;8.600;2023-05-07T09:46:07;26.70;34.80
51029;DHT22;37054;52.054;8.600;2023-05-07T09:48:36;26.70;35.30
51029;DHT22;37054;52.054;8.600;2023-05-07T09:51:03;26.90;35.20
51029;DHT22;37054;52.054;8.600;2023-05-07T09:53:31;27.00;34.50
51029;DHT22;37054;52.054;8.600;2023-05-07T09:55:58;26.80;34.60
51029;DHT22;37054;52.054;8.600;2023-05-07T09:58:24;26.90;34.70
51029;DHT22;37054;52.054;8.600;2023-05-07T10:00:50;27.10;34.60
51029;DHT22;37054;52.054;8.600;2023-05-07T10:03:16;27.20;34.40
51029;DHT22;37054;52.054;8.600;2023-05-07T10:05:43;27.50;34.40
51029;DHT22;37054;52.054;8.600;2023-05-07T10:08:09;27.80;33.80
51029;DHT22;37054;52.054;8.600;2023-05-07T10:10:35;27.70;33.50
51029;DHT22;37054;52.054;8.600;2023-05-07T10:13:01;27.70;33.80
51029;DHT22;37054;52.054;8.600;2023-05-07T10:15:27;27.80;33.50
51029;DHT22;37054;52.054;8.600;2023-05-07T10:17:54;27.70;33.30
51029;DHT22;37054;52.054;8.600;2023-05-07T10:20:19;27.70;33.30
51029;DHT22;37054;52.054;8.600;2023-05-07T10:22:46;27.90;33.40
51029;DHT22;37054;52.054;8.600;2023-05-07T10:27:40;28.30;32.70
51029;DHT22;37054;52.054;8.600;2023-05-07T10:30:12;28.60;32.60
51029;DHT22;37054;52.054;8.600;2023-05-07T10:35:06;29.30;31.70
51029;DHT22;37054;52.054;8.600;2023-05-07T10:37:34;29.50;31.30
51029;DHT22;37054;52.054;8.600;2023-05-07T10:40:00;29.60;30.70
51029;DHT22;37054;52.054;8.600;2023-05-07T10:42:25;29.70;30.40
51029;DHT22;37054;52.054;8.600;2023-05-07T10:44:51;29.70;30.60
51029;DHT22;37054;52.054;8.600;2023-05-07T10:47:16;29.60;30.50
51029;DHT22;37054;52.054;8.600;2023-05-07T10:54:38;29.70;30.50
51029;DHT22;37054;52.054;8.600;2023-05-07T10:59:48;30.10;30.60
51029;DHT22;37054;52.054;8.600;2023-05-07T11:02:14;30.50;30.30
51029;DHT22;37054;52.054;8.600;2023-05-07T11:04:40;30.60;29.70
51029;DHT22;37054;52.054;8.600;2023-05-07T11:15:04;30.80;29.50
51029;DHT22;37054;52.054;8.600;2023-05-07T11:17:30;30.80;29.20
51029;DHT22;37054;52.054;8.600;2023-05-07T11:20:00;30.90;29.30
51029;DHT22;37054;52.054;8.600;2023-05-07T11:24:58;30.70;28.70
51029;DHT22;37054;52.054;8.600;2023-05-07T11:27:24;30.40;29.40
51029;DHT22;37054;52.054;8.600;2023-05-07T11:29:50;30.20;29.70
51029;DHT22;37054;52.054;8.600;2023-05-07T11:32:21;30.10;30.30
51029;DHT22;37054;52.054;8.600;2023-05-07T11:34:47;30.20;30.50
51029;DHT22;37054;52.054;8.600;2023-05-07T11:37:17;30.30;30.20
51029;DHT22;37054;52.054;8.600;2023-05-07T11:39:42;30.30;30.10
51029;DHT22;37054;52.054;8.600;2023-05-07T11:42:14;30.00;30.00
51029;DHT22;37054;52.054;8.600;2023-05-07T11:44:50;29.80;30.50
51029;DHT22;37054;52.054;8.600;2023-05-07T11:47:20;30.10;30.40
51029;DHT22;37054;52.054;8.600;2023-05-07T11:49:49;30.50;30.10
51029;DHT22;37054;52.054;8.600;2023-05-07T11:52:15;30.70;29.80
51029;DHT22;37054;52.054;8.600;2023-05-07T11:54:41;30.90;29.00
51029;DHT22;37054;52.054;8.600;2023-05-07T11:57:06;31.10;29.40
51029;DHT22;37054;52.054;8.600;2023-05-07T11:59:39;31.30;28.80
51029;DHT22;37054;52.054;8.600;2023-05-07T12:02:06;31.10;28.40
51029;DHT22;37054;52.054;8.600;2023-05-07T12:04:31;30.60;28.70
51029;DHT22;37054;52.054;8.600;2023-05-07T12:06:56;30.20;29.30
51029;DHT22;37054;52.054;8.600;2023-05-07T12:09:22;30.10;29.80
51029;DHT22;37054;52.054;8.600;2023-05-07T12:11:48;30.10;29.80
51029;DHT22;37054;52.054;8.600;2023-05-07T12:14:13;30.10;30.00
51029;DHT22;37054;52.054;8.600;2023-05-07T12:16:41;30.10;29.80
51029;DHT22;37054;52.054;8.600;2023-05-07T12:19:07;30.10;29.70
51029;DHT22;37054;52.054;8.600;2023-05-07T12:21:34;30.10;29.70
51029;DHT22;37054;52.054;8.600;2023-05-07T12:23:59;30.20;30.00
51029;DHT22;37054;52.054;8.600;2023-05-07T12:26:25;30.40;29.60
51029;DHT22;37054;52.054;8.600;2023-05-07T12:28:51;30.50;29.30
51029;DHT22;37054;52.054;8.600;2023-05-07T12:31:16;30.30;29.40
51029;DHT22;37054;52.054;8.600;2023-05-07T12:33:42;30.10;29.60
51029;DHT22;37054;52.054;8.600;2023-05-07T12:36:07;29.80;29.80
51029;DHT22;37054;52.054;8.600;2023-05-07T12:38:39;29.50;30.20
51029;DHT22;37054;52.054;8.600;2023-05-07T12:41:06;29.50;30.50
51029;DHT22;37054;52.054;8.600;2023-05-07T12:43:32;29.50;30.60
51029;DHT22;37054;52.054;8.600;2023-05-07T12:45:59;29.40;30.40
51029;DHT22;37054;52.054;8.600;2023-05-07T12:48:25;29.10;30.70
51029;DHT22;37054;52.054;8.600;2023-05-07T12:50:53;28.80;30.90
51029;DHT22;37054;52.054;8.600;2023-05-07T12:53:20;28.70;31.20
51029;DHT22;37054;52.054;8.600;2023-05-07T12:55:47;28.40;31.90
51029;DHT22;37054;52.054;8.600;2023-05-07T12:58:20;28.20;32.30
51029;DHT22;37054;52.054;8.600;2023-05-07T13:00:47;28.30;32.50
51029;DHT22;37054;52.054;8.600;2023-05-07T13:03:16;28.30;32.30
51029;DHT22;37054;52.054;8.600;2023-05-07T13:05:45;28.40;32.20
51029;DHT22;37054;52.054;8.600;2023-05-07T13:08:11;28.40;32.20
51029;DHT22;37054;52.054;8.600;2023-05-07T13:10:36;28.30;32.20
51029;DHT22;37054;52.054;8.600;2023-05-07T13:13:02;28.40;32.30
51029;DHT22;37054;52.054;8.600;2023-05-07T13:15:27;28.50;32.60
51029;DHT22;37054;52.054;8.600;2023-05-07T13:17:53;28.60;32.10
51029;DHT22;37054;52.054;8.600;2023-05-07T13:20:19;28.60;32.00
51029;DHT22;37054;52.054;8.600;2023-05-07T13:22:44;28.70;32.00
51029;DHT22;37054;52.054;8.600;2023-05-07T13:25:10;28.70;31.80
51029;DHT22;37054;52.054;8.600;2023-05-07T13:27:35;28.60;31.80
51029;DHT22;37054;52.054;8.600;2023-05-07T13:30:02;28.60;31.70
51029;DHT22;37054;52.054;8.600;2023-05-07T13:32:28;28.60;31.50
51029;DHT22;37054;52.054;8.600;2023-05-07T13:34:53;28.60;32.00
51029;DHT22;37054;52.054;8.600;2023-05-07T13:37:19;28.70;31.70
51029;DHT22;37054;52.054;8.600;2023-05-07T13:39:45;28.80;31.60
51029;DHT22;37054;52.054;8.600;2023-05-07T13:42:11;28.70;31.30
51029;DHT22;37054;52.054;8.600;2023-05-07T13:44:36;28.50;31.50
51029;DHT22;37054;52.054;8.600;2023-05-07T13:47:01;28.60;31.60
51029;DHT22;37054;52.054;8.600;2023-05-07T13:49:27;28.30;31.80
51029;DHT22;37054;52.054;8.600;2023-05-07T13:51:52;28.30;32.00
51029;DHT22;37054;52.054;8.600;2023-05-07T13:54:18;28.30;32.10
51029;DHT22;37054;52.054;8.600;2023-05-07T13:56:43;28.30;32.20
51029;DHT22;37054;52.054;8.600;2023-05-07T13:59:09;28.30;32.30
51029;DHT22;37054;52.054;8.600;2023-05-07T14:01:34;28.40;32.20
51029;DHT22;37054;52.054;8.600;2023-05-07T14:04:00;28.30;31.90
51029;DHT22;37054;52.054;8.600;2023-05-07T14:06:25;28.20;32.30
51029;DHT22;37054;52.054;8.600;2023-05-07T14:08:51;28.00;32.40
51029;DHT22;37054;52.054;8.600;2023-05-07T14:11:16;27.90;32.70
51029;DHT22;37054;52.054;8.600;2023-05-07T14:13:42;27.70;32.70
51029;DHT22;37054;52.054;8.600;2023-05-07T14:16:07;27.30;32.90
51029;DHT22;37054;52.054;8.600;2023-05-07T14:18:33;27.10;33.30
51029;DHT22;37054;52.054;8.600;2023-05-07T14:20:59;26.80;33.70
51029;DHT22;37054;52.054;8.600;2023-05-07T14:23:25;26.70;34.20
51029;DHT22;37054;52.054;8.600;2023-05-07T14:25:54;26.60;34.40
51029;DHT22;37054;52.054;8.600;2023-05-07T14:28:21;26.30;34.70
51029;DHT22;37054;52.054;8.600;2023-05-07T14:30:47;26.20;35.00
51029;DHT22;37054;52.054;8.600;2023-05-07T14:33:13;26.10;35.20
51029;DHT22;37054;52.054;8.600;2023-05-07T14:35:38;26.10;35.50
51029;DHT22;37054;52.054;8.600;2023-05-07T14:38:04;26.00;35.60
51029;DHT22;37054;52.054;8.600;2023-05-07T14:40:29;25.90;35.70
51029;DHT22;37054;52.054;8.600;2023-05-07T14:42:54;25.80;35.80
51029;DHT22;37054;52.054;8.600;2023-05-07T14:45:22;25.70;35.90
51029;DHT22;37054;52.054;8.600;2023-05-07T14:47:47;25.50;36.00
51029;DHT22;37054;52.054;8.600;2023-05-07T14:50:13;25.40;36.40
51029;DHT22;37054;52.054;8.600;2023-05-07T14:52:38;25.30;36.50
51029;DHT22;37054;52.054;8.600;2023-05-07T14:55:04;25.40;36.70
51029;DHT22;37054;52.054;8.600;2023-05-07T14:57:29;25.30;36.90
51029;DHT22;37054;52.054;8.600;2023-05-07T14:59:55;25.20;36.70
51029;DHT22;37054;52.054;8.600;2023-05-07T15:02:20;25.20;36.70
51029;DHT22;37054;52.054;8.600;2023-05-07T15:04:46;25.10;36.90
51029;DHT22;37054;52.054;8.600;2023-05-07T15:07:14;25.00;36.90
51029;DHT22;37054;52.054;8.600;2023-05-07T15:09:41;24.90;37.00
51029;DHT22;37054;52.054;8.600;2023-05-07T15:12:06;24.80;37.10
51029;DHT22;37054;52.054;8.600;2023-05-07T15:14:32;24.80;37.10
51029;DHT22;37054;52.054;8.600;2023-05-07T15:16:58;24.80;37.20
51029;DHT22;37054;52.054;8.600;2023-05-07T15:19:23;24.70;37.20
51029;DHT22;37054;52.054;8.600;2023-05-07T15:21:54;24.70;37.30
51029;DHT22;37054;52.054;8.600;2023-05-07T15:24:19;24.70;37.40
51029;DHT22;37054;52.054;8.600;2023-05-07T15:26:45;24.70;37.30
51029;DHT22;37054;52.054;8.600;2023-05-07T15:29:10;24.70;37.40
51029;DHT22;37054;52.054;8.600;2023-05-07T15:31:36;24.70;37.30
51029;DHT22;37054;52.054;8.600;2023-05-07T15:34:03;24.60;37.30
51029;DHT22;37054;52.054;8.600;2023-05-07T15:36:28;24.60;37.40
51029;DHT22;37054;52.054;8.600;2023-05-07T15:38:53;24.60;37.70
51029;DHT22;37054;52.054;8.600;2023-05-07T15:41:19;24.70;37.60
51029;DHT22;37054;52.054;8.600;2023-05-07T15:43:46;24.70;37.60